createdAt,value
2017-09-16T00:01:35.030Z,23.50
2017-09-16T00:04:03.412Z,23.50
2017-09-16T00:06:31.808Z,23.50
2017-09-16T00:08:59.514Z,23.50
2017-09-16T00:11:27.110Z,23.50
2017-09-16T00:13:55.480Z,23.50
2017-09-16T00:16:23.996Z,23.50
2017-09-16T00:18:51.570Z,23.50
2017-09-16T00:21:19.204Z,23.50
2017-09-16T00:23:46.808Z,23.50
2017-09-16T00:26:14.437Z,23.50
2017-09-16T00:28:42.040Z,23.50
2017-09-16T00:31:09.655Z,23.50
2017-09-16T00:33:37.292Z,23.50
2017-09-16T00:36:05.641Z,23.50
2017-09-16T00:38:33.252Z,23.50
2017-09-16T00:41:00.860Z,23.50
2017-09-16T00:43:28.497Z,23.50
2017-09-16T00:45:56.080Z,23.50
2017-09-16T00:48:23.667Z,23.50
2017-09-16T00:50:52.170Z,23.50
2017-09-16T00:53:19.766Z,23.50
2017-09-16T00:55:47.375Z,23.50
2017-09-16T00:58:15.854Z,23.50
2017-09-16T01:00:44.288Z,23.50
2017-09-16T01:03:11.961Z,23.50
2017-09-16T01:05:39.559Z,23.50
2017-09-16T01:08:08.010Z,23.50
2017-09-16T01:10:35.671Z,23.50
2017-09-16T01:13:03.276Z,23.50
2017-09-16T01:15:30.925Z,23.50
2017-09-16T01:17:59.322Z,23.50
2017-09-16T01:20:26.900Z,23.50
2017-09-16T01:22:54.524Z,23.40
2017-09-16T01:25:22.889Z,23.50
2017-09-16T01:27:50.480Z,23.50
2017-09-16T01:30:18.110Z,23.50
2017-09-16T01:32:45.684Z,23.50
2017-09-16T01:35:14.113Z,23.50
2017-09-16T01:37:41.720Z,23.50
2017-09-16T01:40:10.067Z,23.50
2017-09-16T01:42:37.716Z,23.40
2017-09-16T01:45:05.406Z,23.50
2017-09-16T01:47:33.038Z,23.80
2017-09-16T01:50:00.657Z,23.50
2017-09-16T01:52:28.240Z,23.50
2017-09-16T01:54:57.158Z,23.40
2017-09-16T01:57:24.804Z,23.40
2017-09-16T01:59:52.434Z,23.50
2017-09-16T02:02:20.078Z,23.50
2017-09-16T02:04:48.476Z,23.50
2017-09-16T02:07:16.063Z,23.40
2017-09-16T02:09:43.792Z,23.50
2017-09-16T02:12:11.388Z,23.50
2017-09-16T02:14:39.021Z,23.40
2017-09-16T02:17:06.628Z,23.50
2017-09-16T02:19:34.200Z,23.40
2017-09-16T02:22:01.832Z,23.50
2017-09-16T02:24:29.431Z,23.50
2017-09-16T02:26:57.080Z,23.40
2017-09-16T02:29:26.162Z,23.50
2017-09-16T02:31:53.781Z,23.50
2017-09-16T02:34:21.395Z,23.40
2017-09-16T02:36:48.968Z,23.40
2017-09-16T02:39:16.594Z,23.50
2017-09-16T02:41:44.185Z,23.40
2017-09-16T02:44:11.822Z,23.40
2017-09-16T02:46:39.431Z,23.40
2017-09-16T02:49:07.822Z,23.40
2017-09-16T02:51:36.174Z,23.40
2017-09-16T02:54:04.514Z,23.40
2017-09-16T02:56:32.174Z,23.40
2017-09-16T02:58:59.832Z,23.40
2017-09-16T03:01:27.426Z,23.40
2017-09-16T03:03:55.800Z,23.50
2017-09-16T03:06:23.455Z,23.40
2017-09-16T03:08:51.152Z,23.40
2017-09-16T03:11:19.608Z,23.50
2017-09-16T03:13:47.998Z,23.50
2017-09-16T03:16:15.594Z,23.40
2017-09-16T03:18:43.299Z,23.40
2017-09-16T03:21:10.875Z,23.40
2017-09-16T03:23:39.368Z,23.40
2017-09-16T03:26:07.730Z,23.40
2017-09-16T03:28:35.314Z,23.40
2017-09-16T03:31:03.705Z,23.40
2017-09-16T03:33:31.380Z,23.40
2017-09-16T03:35:58.984Z,23.40
2017-09-16T03:38:26.572Z,23.40
2017-09-16T03:40:54.908Z,23.50
2017-09-16T03:43:22.527Z,23.40
2017-09-16T03:45:50.158Z,23.40
2017-09-16T03:48:17.730Z,23.40
2017-09-16T03:50:46.076Z,23.40
2017-09-16T03:53:13.842Z,23.40
2017-09-16T03:55:41.468Z,23.40
2017-09-16T03:58:09.065Z,23.40
2017-09-16T04:00:36.634Z,23.40
2017-09-16T04:03:04.261Z,23.40
2017-09-16T04:05:31.870Z,23.40
2017-09-16T04:08:00.310Z,23.40
2017-09-16T04:10:27.903Z,23.40
2017-09-16T04:12:55.475Z,23.40
2017-09-16T04:15:23.904Z,23.40
2017-09-16T04:17:51.486Z,23.40
2017-09-16T04:20:19.113Z,23.40
2017-09-16T04:22:46.730Z,23.40
2017-09-16T04:25:15.086Z,23.40
2017-09-16T04:27:43.686Z,23.40
2017-09-16T04:30:12.812Z,23.40
2017-09-16T04:32:40.394Z,23.30
2017-09-16T04:35:08.000Z,23.40
2017-09-16T04:37:36.350Z,23.40
2017-09-16T04:40:04.930Z,23.40
2017-09-16T04:42:32.606Z,23.40
2017-09-16T04:45:00.173Z,23.40
2017-09-16T04:47:27.765Z,23.40
2017-09-16T04:49:56.303Z,23.40
2017-09-16T04:52:23.910Z,23.40
2017-09-16T04:54:51.480Z,23.40
2017-09-16T04:57:19.068Z,23.40
2017-09-16T04:59:46.743Z,23.40
2017-09-16T05:02:14.354Z,23.40
2017-09-16T05:04:42.682Z,23.40
2017-09-16T05:07:10.467Z,23.40
2017-09-16T05:09:38.039Z,23.40
2017-09-16T05:12:05.633Z,23.40
2017-09-16T05:14:33.235Z,23.40
2017-09-16T05:17:00.877Z,23.40
2017-09-16T05:19:28.516Z,23.40
2017-09-16T05:21:56.124Z,23.40
2017-09-16T05:24:23.734Z,23.40
2017-09-16T05:26:51.521Z,23.40
2017-09-16T05:29:19.187Z,23.40
2017-09-16T05:31:46.970Z,23.40
2017-09-16T05:34:14.577Z,23.30
2017-09-16T05:36:42.201Z,23.40
2017-09-16T05:39:09.794Z,23.30
2017-09-16T05:41:38.191Z,23.40
2017-09-16T05:44:05.751Z,23.40
2017-09-16T05:46:33.424Z,23.50
2017-09-16T05:49:01.023Z,23.50
2017-09-16T05:51:28.615Z,23.60
2017-09-16T05:53:57.025Z,23.70
2017-09-16T05:56:24.771Z,23.70
2017-09-16T05:58:52.359Z,23.70
2017-09-16T06:01:19.993Z,23.80
2017-09-16T06:03:47.557Z,23.80
2017-09-16T06:06:15.147Z,23.80
2017-09-16T06:08:42.744Z,23.90
2017-09-16T06:11:10.371Z,23.90
2017-09-16T06:13:38.195Z,23.90
2017-09-16T06:16:06.681Z,23.90
2017-09-16T06:18:34.272Z,23.90
2017-09-16T06:21:01.899Z,23.90
2017-09-16T06:23:29.532Z,23.90
2017-09-16T06:25:57.936Z,23.90
2017-09-16T06:28:25.659Z,23.90
2017-09-16T06:30:53.273Z,23.90
2017-09-16T06:33:20.835Z,23.90
2017-09-16T06:35:48.459Z,23.90
2017-09-16T06:38:16.825Z,23.90
2017-09-16T06:40:44.447Z,23.90
2017-09-16T06:43:12.010Z,23.90
2017-09-16T06:45:39.573Z,23.90
2017-09-16T06:48:07.183Z,23.90
2017-09-16T06:50:35.599Z,23.90
2017-09-16T06:53:03.187Z,23.90
2017-09-16T06:55:30.876Z,24.00
2017-09-16T06:57:59.231Z,24.00
2017-09-16T07:00:26.898Z,23.90
2017-09-16T07:02:54.475Z,24.00
2017-09-16T07:05:22.101Z,24.00
2017-09-16T07:07:49.907Z,24.00
2017-09-16T07:10:18.274Z,23.90
2017-09-16T07:12:47.378Z,23.90
2017-09-16T07:15:14.993Z,23.90
2017-09-16T07:17:42.571Z,23.90
2017-09-16T07:20:10.479Z,23.90
2017-09-16T07:22:38.829Z,23.90
2017-09-16T07:25:06.429Z,23.90
2017-09-16T07:27:34.765Z,23.90
2017-09-16T07:30:02.373Z,23.90
2017-09-16T07:32:29.965Z,23.90
2017-09-16T07:34:57.566Z,23.80
2017-09-16T07:37:25.155Z,23.90
2017-09-16T07:39:52.777Z,23.90
2017-09-16T07:42:20.548Z,23.90
2017-09-16T07:44:48.153Z,23.90
2017-09-16T07:47:15.737Z,23.90
2017-09-16T07:49:43.386Z,23.90
2017-09-16T07:52:10.973Z,23.90
2017-09-16T07:54:38.545Z,23.90
2017-09-16T07:57:06.151Z,23.90
2017-09-16T07:59:33.715Z,23.90
2017-09-16T08:02:01.345Z,23.90
2017-09-16T08:04:29.749Z,24.00
2017-09-16T08:06:57.351Z,23.90
2017-09-16T08:09:24.975Z,24.00
2017-09-16T08:11:52.574Z,24.00
2017-09-16T08:14:21.153Z,24.00
2017-09-16T08:16:48.772Z,24.00
2017-09-16T08:19:16.381Z,24.00
2017-09-16T08:21:44.027Z,24.00
2017-09-16T08:24:11.621Z,23.90
2017-09-16T08:26:40.005Z,24.00
2017-09-16T08:29:08.385Z,24.00
2017-09-16T08:31:36.786Z,24.10
2017-09-16T08:34:04.539Z,24.00
2017-09-16T08:36:32.197Z,24.10
2017-09-16T08:39:00.579Z,24.10
2017-09-16T08:41:28.191Z,24.10
2017-09-16T08:43:55.812Z,24.10
2017-09-16T08:46:23.457Z,24.00
2017-09-16T08:48:51.049Z,24.10
2017-09-16T08:51:18.668Z,24.10
2017-09-16T08:53:47.054Z,24.10
2017-09-16T08:56:15.489Z,24.10
2017-09-16T08:58:43.075Z,24.00
2017-09-16T09:01:10.730Z,24.10
2017-09-16T09:03:38.395Z,24.00
2017-09-16T09:06:05.989Z,24.10
2017-09-16T09:08:34.403Z,24.10
2017-09-16T09:11:02.022Z,24.10
2017-09-16T09:13:30.392Z,24.10
2017-09-16T09:15:58.760Z,24.10
2017-09-16T09:18:26.367Z,24.10
2017-09-16T09:20:54.014Z,24.10
2017-09-16T09:23:21.633Z,24.00
2017-09-16T09:25:49.245Z,24.10
2017-09-16T09:28:16.861Z,24.10
2017-09-16T09:30:44.475Z,24.10
2017-09-16T09:33:12.064Z,24.10
2017-09-16T09:35:39.677Z,24.10
2017-09-16T09:38:07.249Z,24.10
2017-09-16T09:40:34.858Z,24.10
2017-09-16T09:43:02.721Z,24.10
2017-09-16T09:45:30.315Z,24.10
2017-09-16T09:47:58.727Z,24.10
2017-09-16T09:50:26.329Z,24.10
2017-09-16T09:52:53.971Z,24.10
2017-09-16T09:55:21.551Z,24.10
2017-09-16T09:57:49.301Z,24.10
2017-09-16T10:00:16.899Z,24.10
2017-09-16T10:02:45.323Z,24.10
2017-09-16T10:05:12.960Z,24.10
2017-09-16T10:07:40.563Z,24.10
2017-09-16T10:10:08.172Z,24.10
2017-09-16T10:12:35.796Z,24.10
2017-09-16T10:15:03.434Z,24.10
2017-09-16T10:17:31.063Z,24.10
2017-09-16T10:19:58.734Z,24.10
2017-09-16T10:22:26.396Z,24.10
2017-09-16T10:24:54.003Z,24.10
2017-09-16T10:27:21.637Z,24.10
2017-09-16T10:29:49.204Z,24.10
2017-09-16T10:32:16.842Z,24.10
2017-09-16T10:34:44.418Z,24.10
2017-09-16T10:37:12.083Z,24.10
2017-09-16T10:39:39.677Z,24.10
2017-09-16T10:42:08.021Z,24.10
2017-09-16T10:44:35.637Z,24.10
2017-09-16T10:47:03.237Z,24.10
2017-09-16T10:49:30.961Z,24.20
2017-09-16T10:51:58.551Z,24.20
2017-09-16T10:54:26.175Z,24.20
2017-09-16T10:56:54.515Z,24.20
2017-09-16T10:59:22.144Z,24.10
2017-09-16T11:01:49.754Z,24.20
2017-09-16T11:04:17.439Z,24.20
2017-09-16T11:06:45.866Z,24.10
2017-09-16T11:09:13.473Z,24.10
2017-09-16T11:11:41.820Z,24.20
2017-09-16T11:14:09.453Z,24.10
2017-09-16T11:16:37.115Z,24.20
2017-09-16T11:19:04.693Z,24.20
2017-09-16T11:21:32.305Z,24.20
2017-09-16T11:24:00.085Z,24.20
2017-09-16T11:26:27.660Z,24.20
2017-09-16T11:28:55.339Z,24.20
2017-09-16T11:31:22.936Z,24.20
2017-09-16T11:33:51.361Z,24.20
2017-09-16T11:36:18.991Z,24.10
2017-09-16T11:38:47.374Z,24.20
2017-09-16T11:41:15.173Z,24.20
2017-09-16T11:43:42.761Z,24.20
2017-09-16T11:46:11.849Z,24.20
2017-09-16T11:48:39.445Z,24.20
2017-09-16T11:51:08.016Z,24.20
2017-09-16T11:53:36.355Z,24.20
2017-09-16T11:56:03.987Z,24.20
2017-09-16T11:58:31.591Z,24.20
2017-09-16T12:00:59.219Z,24.20
2017-09-16T12:03:26.851Z,24.20
2017-09-16T12:05:54.434Z,24.20
2017-09-16T12:08:22.061Z,24.20
2017-09-16T12:10:50.445Z,24.20
2017-09-16T12:13:18.827Z,24.20
2017-09-16T12:15:46.423Z,24.20
2017-09-16T12:18:14.063Z,24.20
2017-09-16T12:20:41.650Z,24.20
2017-09-16T12:23:09.236Z,24.20
2017-09-16T12:25:36.951Z,24.30
2017-09-16T12:28:04.551Z,24.30
2017-09-16T12:30:32.183Z,24.30
2017-09-16T12:32:59.807Z,24.30
2017-09-16T12:35:28.370Z,24.30
2017-09-16T12:37:55.933Z,24.30
2017-09-16T12:40:24.269Z,24.30
2017-09-16T12:42:52.072Z,24.30
2017-09-16T12:45:19.727Z,24.30
2017-09-16T12:47:47.389Z,24.30
2017-09-16T12:50:14.973Z,24.30
2017-09-16T12:52:42.559Z,24.30
2017-09-16T12:55:10.201Z,24.30
2017-09-16T12:57:38.618Z,24.30
2017-09-16T13:00:06.291Z,24.30
2017-09-16T13:02:33.907Z,24.30
2017-09-16T13:05:02.302Z,24.30
2017-09-16T13:07:29.910Z,24.30
2017-09-16T13:09:57.522Z,24.30
2017-09-16T13:12:25.129Z,24.30
2017-09-16T13:14:52.838Z,24.30
2017-09-16T13:17:20.443Z,24.30
2017-09-16T13:19:48.039Z,24.30
2017-09-16T13:22:15.642Z,24.30
2017-09-16T13:24:43.293Z,24.30
2017-09-16T13:27:10.872Z,24.30
2017-09-16T13:29:38.621Z,24.30
2017-09-16T13:32:06.211Z,24.30
2017-09-16T13:34:33.810Z,24.40
2017-09-16T13:37:02.189Z,24.40
2017-09-16T13:39:30.563Z,24.40
2017-09-16T13:41:58.946Z,24.50
2017-09-16T13:44:27.473Z,24.50
2017-09-16T13:46:55.064Z,24.50
2017-09-16T13:49:22.706Z,24.50
2017-09-16T13:51:50.314Z,24.40
2017-09-16T13:54:18.680Z,24.40
2017-09-16T13:56:46.294Z,24.40
2017-09-16T13:59:13.934Z,24.40
2017-09-16T14:01:41.571Z,24.40
2017-09-16T14:04:09.940Z,24.30
2017-09-16T14:06:37.595Z,24.30
2017-09-16T14:09:05.214Z,24.30
2017-09-16T14:11:32.806Z,24.30
2017-09-16T14:14:00.537Z,24.30
2017-09-16T14:16:28.173Z,24.30
2017-09-16T14:18:55.758Z,24.30
2017-09-16T14:21:23.345Z,24.30
2017-09-16T14:23:50.959Z,24.30
2017-09-16T14:26:18.589Z,24.30
2017-09-16T14:28:46.200Z,24.30
2017-09-16T14:31:13.824Z,24.30
2017-09-16T14:33:42.173Z,24.30
2017-09-16T14:36:10.567Z,24.30
2017-09-16T14:38:38.142Z,24.20
2017-09-16T14:41:05.762Z,24.30
2017-09-16T14:43:33.404Z,24.30
2017-09-16T14:46:00.989Z,24.30
2017-09-16T14:48:29.362Z,24.40
2017-09-16T14:50:56.974Z,24.40
2017-09-16T14:53:24.664Z,24.40
2017-09-16T14:55:52.265Z,24.40
2017-09-16T14:58:19.878Z,24.40
2017-09-16T15:00:47.476Z,24.50
2017-09-16T15:03:15.092Z,24.50
2017-09-16T15:05:42.689Z,24.60
2017-09-16T15:08:10.294Z,24.60
2017-09-16T15:10:38.672Z,24.60
2017-09-16T15:13:07.008Z,24.70
2017-09-16T15:15:34.644Z,24.70
2017-09-16T15:18:02.375Z,24.70
2017-09-16T15:20:30.727Z,24.70
2017-09-16T15:22:59.082Z,24.70
2017-09-16T15:25:26.821Z,24.70
2017-09-16T15:27:54.454Z,24.80
2017-09-16T15:30:22.795Z,24.80
2017-09-16T15:32:50.389Z,24.80
2017-09-16T15:35:18.763Z,24.80
2017-09-16T15:37:47.120Z,24.80
2017-09-16T15:40:14.755Z,24.80
2017-09-16T15:42:42.364Z,24.90
2017-09-16T15:45:10.784Z,24.70
2017-09-16T15:47:38.743Z,25.00
2017-09-16T15:50:06.637Z,25.20
2017-09-16T15:52:34.384Z,25.20
2017-09-16T15:55:01.967Z,25.30
2017-09-16T15:57:29.561Z,25.30
2017-09-16T15:59:57.944Z,25.40
2017-09-16T16:02:26.445Z,25.50
2017-09-16T16:04:54.070Z,25.40
2017-09-16T16:07:23.200Z,25.50
2017-09-16T16:09:50.798Z,25.40
2017-09-16T16:12:18.428Z,25.50
2017-09-16T16:14:46.128Z,25.40
2017-09-16T16:17:13.745Z,25.40
2017-09-16T16:19:41.360Z,25.30
2017-09-16T16:22:09.293Z,25.30
2017-09-16T16:24:37.065Z,25.30
2017-09-16T16:27:04.623Z,25.20
2017-09-16T16:29:32.450Z,25.10
2017-09-16T16:32:00.832Z,25.10
2017-09-16T16:34:29.180Z,25.10
2017-09-16T16:36:56.808Z,25.00
2017-09-16T16:39:24.399Z,25.00
2017-09-16T16:41:52.074Z,25.00
2017-09-16T16:44:19.788Z,24.90
2017-09-16T16:46:47.418Z,24.90
2017-09-16T16:49:15.790Z,24.90
2017-09-16T16:51:44.274Z,24.90
2017-09-16T16:54:12.788Z,24.90
2017-09-16T16:56:40.426Z,24.80
2017-09-16T16:59:08.047Z,24.80
2017-09-16T17:01:35.669Z,24.80
2017-09-16T17:04:03.320Z,24.80
2017-09-16T17:06:31.004Z,24.80
2017-09-16T17:08:58.702Z,24.80
2017-09-16T17:11:26.301Z,24.80
2017-09-16T17:13:53.940Z,24.70
2017-09-16T17:16:22.339Z,24.70
2017-09-16T17:18:49.908Z,24.70
2017-09-16T17:21:17.654Z,24.70
2017-09-16T17:23:46.045Z,24.70
2017-09-16T17:26:13.642Z,24.70
2017-09-16T17:28:41.274Z,24.70
2017-09-16T17:31:09.066Z,24.70
2017-09-16T17:33:36.710Z,24.70
2017-09-16T17:36:04.314Z,24.70
2017-09-16T17:38:31.951Z,24.70
2017-09-16T17:40:59.597Z,24.70
2017-09-16T17:43:27.220Z,24.70
2017-09-16T17:45:55.694Z,24.80
2017-09-16T17:48:24.084Z,24.80
2017-09-16T17:50:52.452Z,24.80
2017-09-16T17:53:20.830Z,24.70
2017-09-16T17:55:49.228Z,24.70
2017-09-16T17:58:16.848Z,24.70
2017-09-16T18:00:44.443Z,24.80
2017-09-16T18:03:12.052Z,24.70
2017-09-16T18:05:39.783Z,24.70
2017-09-16T18:08:07.382Z,24.70
2017-09-16T18:10:35.002Z,24.70
2017-09-16T18:13:02.647Z,24.70
2017-09-16T18:15:31.178Z,24.70
2017-09-16T18:17:58.962Z,24.70
2017-09-16T18:20:27.466Z,24.70
2017-09-16T18:22:56.108Z,24.70
2017-09-16T18:25:23.731Z,24.70
2017-09-16T18:27:51.330Z,24.70
2017-09-16T18:30:19.035Z,24.70
2017-09-16T18:32:47.516Z,24.70
2017-09-16T18:35:15.880Z,24.70
2017-09-16T18:37:43.508Z,24.70
2017-09-16T18:40:11.113Z,24.70
2017-09-16T18:42:39.498Z,24.80
2017-09-16T18:45:08.216Z,24.60
2017-09-16T18:47:35.984Z,24.70
2017-09-16T18:50:03.881Z,24.80
2017-09-16T18:52:31.520Z,24.80
2017-09-16T18:54:59.136Z,24.80
2017-09-16T18:57:27.556Z,24.80
2017-09-16T18:59:55.167Z,24.70
2017-09-16T19:02:22.753Z,24.70
2017-09-16T19:04:50.360Z,24.70
2017-09-16T19:07:17.960Z,24.70
2017-09-16T19:09:46.356Z,24.70
2017-09-16T19:12:13.954Z,24.70
2017-09-16T19:14:41.723Z,24.70
2017-09-16T19:17:09.354Z,24.70
2017-09-16T19:19:37.867Z,24.70
2017-09-16T19:22:05.444Z,24.70
2017-09-16T19:24:33.075Z,24.70
2017-09-16T19:27:00.691Z,24.70
2017-09-16T19:29:29.160Z,24.60
2017-09-16T19:31:56.776Z,24.70
2017-09-16T19:34:24.378Z,24.40
2017-09-16T19:36:53.468Z,23.60
2017-09-16T19:39:21.112Z,23.60
2017-09-16T19:41:48.702Z,23.20
2017-09-16T19:44:16.281Z,23.00
2017-09-16T19:46:44.666Z,22.70
2017-09-16T19:49:12.373Z,22.60
2017-09-16T19:51:40.037Z,22.50
2017-09-16T19:54:07.614Z,22.40
2017-09-16T19:56:36.127Z,22.20
2017-09-16T19:59:04.291Z,22.10
2017-09-16T20:01:32.695Z,21.90
2017-09-16T20:04:00.299Z,21.90
2017-09-16T20:06:28.068Z,21.90
2017-09-16T20:08:55.683Z,21.90
2017-09-16T20:11:23.312Z,21.80
2017-09-16T20:13:51.657Z,21.70
2017-09-16T20:16:19.243Z,21.70
2017-09-16T20:18:47.675Z,21.80
2017-09-16T20:21:15.304Z,21.70
2017-09-16T20:23:43.669Z,21.80
2017-09-16T20:26:12.063Z,21.80
2017-09-16T20:28:39.652Z,21.80
2017-09-16T20:31:07.260Z,21.80
2017-09-16T20:33:34.866Z,21.70
2017-09-16T20:36:02.509Z,21.70
2017-09-16T20:38:30.111Z,21.70
2017-09-16T20:40:57.733Z,21.60
2017-09-16T20:43:25.348Z,21.60
2017-09-16T20:45:54.444Z,21.50
2017-09-16T20:48:22.057Z,21.50
2017-09-16T20:50:49.634Z,21.50
2017-09-16T20:53:17.212Z,21.40
2017-09-16T20:55:44.810Z,21.40
2017-09-16T20:58:13.149Z,21.40
2017-09-16T21:00:40.756Z,21.40
2017-09-16T21:03:09.130Z,21.50
2017-09-16T21:05:37.506Z,21.40
2017-09-16T21:08:05.906Z,21.40
2017-09-16T21:10:33.512Z,21.40
2017-09-16T21:13:01.081Z,21.40
2017-09-16T21:15:28.677Z,21.40
2017-09-16T21:17:57.090Z,21.20
2017-09-16T21:20:24.716Z,21.20
2017-09-16T21:22:52.408Z,21.10
2017-09-16T21:25:20.038Z,21.10
2017-09-16T21:27:48.402Z,21.10
2017-09-16T21:30:16.795Z,21.00
2017-09-16T21:32:44.434Z,21.00
2017-09-16T21:35:12.083Z,21.00
2017-09-16T21:37:39.720Z,21.00
2017-09-16T21:40:07.627Z,21.00
2017-09-16T21:42:36.044Z,21.00
2017-09-16T21:45:04.005Z,21.00
2017-09-16T21:47:31.621Z,21.00
2017-09-16T21:49:59.323Z,21.00
2017-09-16T21:52:27.730Z,21.00
2017-09-16T21:54:55.372Z,21.00
2017-09-16T21:57:22.981Z,21.00
2017-09-16T21:59:50.567Z,21.00
2017-09-16T22:02:18.965Z,20.90
2017-09-16T22:04:46.560Z,20.90
2017-09-16T22:07:14.182Z,20.80
2017-09-16T22:09:42.791Z,20.70
2017-09-16T22:12:10.377Z,20.60
2017-09-16T22:14:37.974Z,20.60
2017-09-16T22:17:06.365Z,20.60
2017-09-16T22:19:34.715Z,20.50
2017-09-16T22:22:02.774Z,20.50
2017-09-16T22:24:30.392Z,20.60
2017-09-16T22:26:58.041Z,20.50
2017-09-16T22:29:25.636Z,20.50
2017-09-16T22:31:53.197Z,20.50
2017-09-16T22:34:20.759Z,20.40
2017-09-16T22:36:48.338Z,20.40
2017-09-16T22:39:15.931Z,20.40
2017-09-16T22:41:44.257Z,20.30
2017-09-16T22:44:11.884Z,20.30
2017-09-16T22:46:40.351Z,20.30
2017-09-16T22:49:08.740Z,20.30
2017-09-16T22:51:36.458Z,20.30
2017-09-16T22:54:04.393Z,20.30
2017-09-16T22:56:32.058Z,20.30
2017-09-16T22:58:59.674Z,20.30
2017-09-16T23:01:28.039Z,20.20
2017-09-16T23:03:55.644Z,20.20
2017-09-16T23:06:23.256Z,20.30
2017-09-16T23:08:51.650Z,20.20
2017-09-16T23:11:19.294Z,20.20
2017-09-16T23:13:46.937Z,20.20
2017-09-16T23:16:14.550Z,20.30
2017-09-16T23:18:42.930Z,20.30
2017-09-16T23:21:10.560Z,20.30
2017-09-16T23:23:38.160Z,20.30
2017-09-16T23:26:05.786Z,20.30
2017-09-16T23:28:33.414Z,20.30
2017-09-16T23:31:01.020Z,20.30
2017-09-16T23:33:29.358Z,20.30
2017-09-16T23:35:57.022Z,20.20
2017-09-16T23:38:24.620Z,20.20
2017-09-16T23:40:53.140Z,20.20
2017-09-16T23:43:20.720Z,20.20
2017-09-16T23:45:48.412Z,20.10
2017-09-16T23:48:16.006Z,20.10
2017-09-16T23:50:43.596Z,20.00
2017-09-16T23:53:11.216Z,20.00
2017-09-16T23:55:39.581Z,20.00
2017-09-16T23:58:07.970Z,20.00
